Karin S — V2BM6 — position and weather

sailwx.info

Track history (hours):
 
Tides and Currents Weather Stations Pressure Air Temp Water Temp Dewpoint Dewpoint Depression Visibility Wind Speed Wind Dir Waves Ship Positions

Karin S

Last reported at 2016-Jul-27 14:33 UTC. Time now 2016-Jul-27 15:20 UTC.
Position N 36°49' W 000°05'.

Length 141 m; draft 9.1 m.

Type: Cargo ship. MMSI: 304871000.

Date/timePositionNaut miles runAvg speedWind from/ knotsBaromVisibWave heightAir tempDewpointWater temp
2016-Jul-27 14:33N 36°49' W 000°05'1211.7
2016-Jul-27 13:33N 36°60' W 000°00'1211.6
2016-Jul-27 12:32N 37°11' E 000°05'1211.6
2016-Jul-27 11:32N 37°22' E 000°10'1511.4
2016-Jul-27 10:10N 37°36' E 000°17'1111.4
2016-Jul-27 09:12N 37°46' E 000°22'811.8
2016-Jul-27 08:32N 37°53' E 000°26'1414.1
2016-Jul-27 07:32N 38°06' E 000°34'1212.1
2016-Jul-27 06:33N 38°17' E 000°39'1212.0
2016-Jul-27 05:33N 38°29' E 000°44'2411.9
2016-Jul-27 03:31N 38°51' E 000°56'1211.6
2016-Jul-27 02:30N 39°02' E 001°01'1111.7
2016-Jul-27 01:33N 39°13' E 001°06'1211.5
2016-Jul-27 00:32N 39°23' E 001°12'1511.7
2016-Jul-26 23:14N 39°37' E 001°20'811.6
2016-Jul-26 22:33N 39°45' E 001°23'1211.6
2016-Jul-26 21:33N 39°56' E 001°28'1211.7
2016-Jul-26 20:33N 40°06' E 001°34'1211.7
2016-Jul-26 19:33N 40°17' E 001°40'1211.7
2016-Jul-26 18:33N 40°28' E 001°45'1211.8
2016-Jul-26 17:33N 40°39' E 001°51'1212.0
2016-Jul-26 16:33N 40°50' E 001°57'1212.1
2016-Jul-26 15:33N 41°01' E 002°03'1212.5
2016-Jul-26 14:33N 41°13' E 002°09'6 5.6
2016-Jul-26 13:33N 41°19' E 002°09'0 0.0
2016-Jul-26 12:33N 41°19' E 002°09'0 0.0
2016-Jul-26 11:33N 41°19' E 002°09'0 0.0
2016-Jul-26 10:33N 41°19' E 002°09'0 0.0
2016-Jul-26 09:33N 41°19' E 002°09'0 0.0
2016-Jul-26 08:33N 41°19' E 002°09'0 0.0
2016-Jul-26 07:33N 41°19' E 002°09'0 0.0
2016-Jul-26 06:33N 41°19' E 002°09'0 0.0
2016-Jul-26 05:33N 41°19' E 002°09'0 0.0
2016-Jul-26 04:33N 41°19' E 002°09'0 0.0
2016-Jul-26 02:33N 41°19' E 002°09'0 0.0
2016-Jul-26 01:32N 41°19' E 002°09'0 0.0
2016-Jul-26 00:33N 41°19' E 002°09'0 0.0
2016-Jul-25 23:33N 41°19' E 002°09'0 0.0
2016-Jul-25 22:33N 41°19' E 002°09'0 0.0
2016-Jul-25 21:33N 41°19' E 002°09'0 0.0
2016-Jul-25 20:33N 41°19' E 002°09'0 0.0
2016-Jul-25 19:33N 41°19' E 002°09'0 0.0
2016-Jul-25 18:25N 41°19' E 002°09'0 0.0
2016-Jul-25 17:33N 41°19' E 002°09'0 0.0
2016-Jul-25 16:33N 41°19' E 002°09'0 0.0
2016-Jul-25 15:33N 41°19' E 002°09'0 0.0
2016-Jul-25 14:33N 41°19' E 002°09'2 1.9
2016-Jul-25 13:33N 41°18' E 002°11'1 1.0
2016-Jul-25 12:17N 41°19' E 002°11'0 0.0
2016-Jul-25 11:33N 41°19' E 002°11'0 0.0
2016-Jul-25 10:18N 41°19' E 002°11'0 0.0
2016-Jul-25 09:24N 41°19' E 002°11'0 0.0
2016-Jul-25 08:33N 41°19' E 002°11'0 0.0
2016-Jul-25 00:18N 41°19' E 002°12'0 0.1
2016-Jul-24 23:30N 41°19' E 002°11'6 6.0
2016-Jul-24 22:33N 41°13' E 002°09'1111.2
2016-Jul-24 21:33N 41°03' E 002°04'1111.0
2016-Jul-24 20:33N 40°52' E 001°58'1211.3
2016-Jul-24 19:32N 40°42' E 001°53'1212.0
2016-Jul-24 18:33N 40°31' E 001°47'1212.2
2016-Jul-24 17:33N 40°19' E 001°42'1211.9
2016-Jul-24 16:33N 40°08' E 001°36'1211.6
2016-Jul-24 15:33N 39°57' E 001°31'1211.8
2016-Jul-24 14:33N 39°46' E 001°25'1511.9
2016-Jul-24 13:16N 39°32' E 001°18'811.8
2016-Jul-24 12:34N 39°24' E 001°14'1211.9
2016-Jul-24 11:33N 39°13' E 001°09'1211.9
2016-Jul-24 10:32N 39°02' E 001°03'3911.9
2016-Jul-24 07:16N 38°25' E 000°45'1311.9
2016-Jul-24 06:12N 38°14' E 000°39'6912.2
2016-Jul-24 00:29N 37°09' E 000°07'1111.9
2016-Jul-23 23:33N 36°58' E 000°02'1212.2
2016-Jul-23 22:33N 36°47' W 000°03'1512.5
2016-Jul-23 21:22N 36°33' W 000°10'1211.9
2016-Jul-23 20:20N 36°22' W 000°16'1311.9
2016-Jul-23 19:13N 36°09' W 000°22'30 2.5
2016-Jul-23 07:21N 35°43' W 000°38'0 0.0
2016-Jul-23 02:18N 35°43' W 000°38'0 0.0
2016-Jul-23 00:33N 35°43' W 000°38'0 0.0
2016-Jul-22 23:33N 35°43' W 000°38'0 0.0
2016-Jul-22 22:32N 35°43' W 000°38'0 0.0
2016-Jul-22 21:33N 35°43' W 000°38'0 0.0
2016-Jul-22 20:32N 35°43' W 000°38'0 0.0
2016-Jul-22 19:33N 35°43' W 000°38'0 0.0
2016-Jul-22 18:33N 35°43' W 000°38'0 0.0
2016-Jul-22 17:31N 35°43' W 000°38'0 0.0
2016-Jul-22 16:31N 35°43' W 000°38'0 0.0
2016-Jul-22 15:30N 35°43' W 000°38'0 0.0
2016-Jul-22 14:29N 35°43' W 000°38'0 0.0
2016-Jul-22 13:21N 35°43' W 000°38'0 0.0
2016-Jul-22 12:19N 35°43' W 000°38'0 0.0
2016-Jul-22 11:33N 35°43' W 000°38'0 0.0
2016-Jul-22 10:33N 35°43' W 000°38'0 0.0
2016-Jul-22 09:32N 35°43' W 000°38'0 0.0
2016-Jul-22 08:12N 35°43' W 000°38'0 0.0
2016-Jul-22 04:33N 35°43' W 000°38'0 0.0
2016-Jul-22 03:27N 35°43' W 000°38'0 0.0
2016-Jul-22 02:19N 35°43' W 000°38'0 0.0
2016-Jul-22 01:28N 35°43' W 000°38'0 0.0
2016-Jul-22 00:06N 35°43' W 000°38'0 0.0
2016-Jul-21 23:32N 35°43' W 000°38'0 0.0
2016-Jul-21 22:33N 35°43' W 000°38'0 0.0
2016-Jul-21 21:33N 35°43' W 000°38'0 0.0
2016-Jul-21 20:32N 35°43' W 000°38'0 0.0
2016-Jul-21 19:30N 35°43' W 000°38'0 0.0
2016-Jul-21 18:32N 35°43' W 000°38'0 0.0
2016-Jul-21 17:31N 35°43' W 000°38'0 0.0
2016-Jul-21 16:33N 35°43' W 000°38'0 0.0
2016-Jul-21 15:28N 35°43' W 000°38'0 0.0
2016-Jul-21 14:32N 35°43' W 000°38'0 0.0
2016-Jul-21 13:32N 35°43' W 000°38'0 0.0
2016-Jul-21 12:31N 35°43' W 000°38'0 0.0
2016-Jul-21 11:33N 35°43' W 000°38'0 0.0
2016-Jul-21 10:32N 35°43' W 000°38'0 0.0
2016-Jul-21 09:33N 35°43' W 000°38'0 0.0
2016-Jul-21 08:32N 35°43' W 000°38'0 0.0
2016-Jul-21 07:33N 35°43' W 000°38'0 0.0
2016-Jul-21 06:21N 35°43' W 000°38'0 0.0
2016-Jul-21 05:32N 35°43' W 000°38'0 0.0
2016-Jul-21 00:08N 35°43' W 000°38'0 0.0
2016-Jul-20 23:33N 35°43' W 000°38'0 0.0
2016-Jul-20 22:33N 35°43' W 000°38'0 0.0
2016-Jul-20 21:22N 35°43' W 000°38'0 0.0
2016-Jul-20 20:33N 35°43' W 000°38'0 0.0
2016-Jul-20 17:28N 35°43' W 000°38'0 0.0
2016-Jul-20 15:29N 35°43' W 000°38'0 0.0
2016-Jul-20 14:31N 35°43' W 000°38'0 0.0
2016-Jul-20 12:32N 35°43' W 000°38'0 0.0
2016-Jul-20 11:24N 35°43' W 000°38'0 0.0
2016-Jul-20 10:33N 35°43' W 000°38'0 0.0
2016-Jul-20 09:32N 35°43' W 000°38'0 0.0
2016-Jul-20 08:32N 35°43' W 000°38'0 0.0
2016-Jul-20 07:26N 35°43' W 000°38'0 0.0
2016-Jul-20 06:34N 35°43' W 000°38'0 0.0
2016-Jul-20 05:30N 35°43' W 000°38'0 0.0
2016-Jul-20 02:23N 35°43' W 000°38'0 0.0
2016-Jul-20 01:30N 35°43' W 000°38'0 0.0
2016-Jul-20 00:33N 35°43' W 000°38'0 0.0
2016-Jul-19 23:33N 35°43' W 000°38'0 0.0
2016-Jul-19 22:33N 35°43' W 000°38'0 0.0
2016-Jul-19 21:25N 35°43' W 000°38'0 0.0
2016-Jul-19 20:34N 35°43' W 000°38'0 0.0
2016-Jul-19 19:33N 35°43' W 000°38'0 0.0
2016-Jul-19 18:33N 35°43' W 000°38'0 0.0
2016-Jul-19 15:26N 35°43' W 000°38'0 0.0
2016-Jul-19 14:12N 35°43' W 000°38'0 0.0
2016-Jul-19 13:26N 35°43' W 000°38'0 0.0
2016-Jul-19 07:19N 35°43' W 000°38'0 0.0
2016-Jul-19 04:32N 35°43' W 000°38'0 0.0
2016-Jul-19 03:25N 35°43' W 000°38'0 0.0
2016-Jul-19 00:29N 35°43' W 000°38'0 0.0
2016-Jul-18 23:14N 35°43' W 000°38'0 0.0
2016-Jul-18 22:15N 35°43' W 000°38'0 0.0
2016-Jul-18 21:21N 35°43' W 000°38'0 0.0
2016-Jul-18 20:30N 35°43' W 000°38'0 0.0
2016-Jul-18 19:33N 35°43' W 000°38'0 0.0
2016-Jul-18 18:31N 35°43' W 000°38'0 0.0
2016-Jul-18 17:18N 35°43' W 000°38'0 0.0
2016-Jul-18 16:33N 35°43' W 000°38'0 0.0
2016-Jul-18 15:33N 35°43' W 000°38'0 0.0
2016-Jul-18 14:33N 35°43' W 000°38'0 0.0
2016-Jul-18 07:22N 35°43' W 000°38'0 0.0
2016-Jul-18 03:25N 35°43' W 000°38'1 0.1
2016-Jul-17 19:21N 35°44' W 000°38'0 0.0
2016-Jul-17 18:33N 35°44' W 000°38'  
Track history (hours):
 
Tides and Currents Weather Stations Pressure Air Temp Water Temp Dewpoint Dewpoint Depression Visibility Wind Speed Wind Dir Waves Ship Positions

Karin S

Last reported at 2016-Jul-27 14:33 UTC. Time now 2016-Jul-27 15:20 UTC.
Position N 36°49' W 000°05'.

Length 141 m; draft 9.1 m.

Type: Cargo ship. MMSI: 304871000.

Date/timePositionNaut miles runAvg speedWind from/ knotsBaromVisibWave heightAir tempDewpointWater temp
2016-Jul-27 14:33N 36°49' W 000°05'1211.7
2016-Jul-27 13:33N 36°60' W 000°00'1211.6
2016-Jul-27 12:32N 37°11' E 000°05'1211.6
2016-Jul-27 11:32N 37°22' E 000°10'1511.4
2016-Jul-27 10:10N 37°36' E 000°17'1111.4
2016-Jul-27 09:12N 37°46' E 000°22'811.8
2016-Jul-27 08:32N 37°53' E 000°26'1414.1
2016-Jul-27 07:32N 38°06' E 000°34'1212.1
2016-Jul-27 06:33N 38°17' E 000°39'1212.0
2016-Jul-27 05:33N 38°29' E 000°44'2411.9
2016-Jul-27 03:31N 38°51' E 000°56'1211.6
2016-Jul-27 02:30N 39°02' E 001°01'1111.7
2016-Jul-27 01:33N 39°13' E 001°06'1211.5
2016-Jul-27 00:32N 39°23' E 001°12'1511.7
2016-Jul-26 23:14N 39°37' E 001°20'811.6
2016-Jul-26 22:33N 39°45' E 001°23'1211.6
2016-Jul-26 21:33N 39°56' E 001°28'1211.7
2016-Jul-26 20:33N 40°06' E 001°34'1211.7
2016-Jul-26 19:33N 40°17' E 001°40'1211.7
2016-Jul-26 18:33N 40°28' E 001°45'1211.8
2016-Jul-26 17:33N 40°39' E 001°51'1212.0
2016-Jul-26 16:33N 40°50' E 001°57'1212.1
2016-Jul-26 15:33N 41°01' E 002°03'1212.5
2016-Jul-26 14:33N 41°13' E 002°09'6 5.6
2016-Jul-26 13:33N 41°19' E 002°09'0 0.0
2016-Jul-26 12:33N 41°19' E 002°09'0 0.0
2016-Jul-26 11:33N 41°19' E 002°09'0 0.0
2016-Jul-26 10:33N 41°19' E 002°09'0 0.0
2016-Jul-26 09:33N 41°19' E 002°09'0 0.0
2016-Jul-26 08:33N 41°19' E 002°09'0 0.0
2016-Jul-26 07:33N 41°19' E 002°09'0 0.0
2016-Jul-26 06:33N 41°19' E 002°09'0 0.0
2016-Jul-26 05:33N 41°19' E 002°09'0 0.0
2016-Jul-26 04:33N 41°19' E 002°09'0 0.0
2016-Jul-26 02:33N 41°19' E 002°09'0 0.0
2016-Jul-26 01:32N 41°19' E 002°09'0 0.0
2016-Jul-26 00:33N 41°19' E 002°09'0 0.0
2016-Jul-25 23:33N 41°19' E 002°09'0 0.0
2016-Jul-25 22:33N 41°19' E 002°09'0 0.0
2016-Jul-25 21:33N 41°19' E 002°09'0 0.0
2016-Jul-25 20:33N 41°19' E 002°09'0 0.0
2016-Jul-25 19:33N 41°19' E 002°09'0 0.0
2016-Jul-25 18:25N 41°19' E 002°09'0 0.0
2016-Jul-25 17:33N 41°19' E 002°09'0 0.0
2016-Jul-25 16:33N 41°19' E 002°09'0 0.0
2016-Jul-25 15:33N 41°19' E 002°09'0 0.0
2016-Jul-25 14:33N 41°19' E 002°09'2 1.9
2016-Jul-25 13:33N 41°18' E 002°11'1 1.0
2016-Jul-25 12:17N 41°19' E 002°11'0 0.0
2016-Jul-25 11:33N 41°19' E 002°11'0 0.0
2016-Jul-25 10:18N 41°19' E 002°11'0 0.0
2016-Jul-25 09:24N 41°19' E 002°11'0 0.0
2016-Jul-25 08:33N 41°19' E 002°11'0 0.0
2016-Jul-25 00:18N 41°19' E 002°12'0 0.1
2016-Jul-24 23:30N 41°19' E 002°11'6 6.0
2016-Jul-24 22:33N 41°13' E 002°09'1111.2
2016-Jul-24 21:33N 41°03' E 002°04'1111.0
2016-Jul-24 20:33N 40°52' E 001°58'1211.3
2016-Jul-24 19:32N 40°42' E 001°53'1212.0
2016-Jul-24 18:33N 40°31' E 001°47'1212.2
2016-Jul-24 17:33N 40°19' E 001°42'1211.9
2016-Jul-24 16:33N 40°08' E 001°36'1211.6
2016-Jul-24 15:33N 39°57' E 001°31'1211.8
2016-Jul-24 14:33N 39°46' E 001°25'1511.9
2016-Jul-24 13:16N 39°32' E 001°18'811.8
2016-Jul-24 12:34N 39°24' E 001°14'1211.9
2016-Jul-24 11:33N 39°13' E 001°09'1211.9
2016-Jul-24 10:32N 39°02' E 001°03'3911.9
2016-Jul-24 07:16N 38°25' E 000°45'1311.9
2016-Jul-24 06:12N 38°14' E 000°39'6912.2
2016-Jul-24 00:29N 37°09' E 000°07'1111.9
2016-Jul-23 23:33N 36°58' E 000°02'1212.2
2016-Jul-23 22:33N 36°47' W 000°03'1512.5
2016-Jul-23 21:22N 36°33' W 000°10'1211.9
2016-Jul-23 20:20N 36°22' W 000°16'1311.9
2016-Jul-23 19:13N 36°09' W 000°22'30 2.5
2016-Jul-23 07:21N 35°43' W 000°38'0 0.0
2016-Jul-23 02:18N 35°43' W 000°38'0 0.0
2016-Jul-23 00:33N 35°43' W 000°38'0 0.0
2016-Jul-22 23:33N 35°43' W 000°38'0 0.0
2016-Jul-22 22:32N 35°43' W 000°38'0 0.0
2016-Jul-22 21:33N 35°43' W 000°38'0 0.0
2016-Jul-22 20:32N 35°43' W 000°38'0 0.0
2016-Jul-22 19:33N 35°43' W 000°38'0 0.0
2016-Jul-22 18:33N 35°43' W 000°38'0 0.0
2016-Jul-22 17:31N 35°43' W 000°38'0 0.0
2016-Jul-22 16:31N 35°43' W 000°38'0 0.0
2016-Jul-22 15:30N 35°43' W 000°38'0 0.0
2016-Jul-22 14:29N 35°43' W 000°38'0 0.0
2016-Jul-22 13:21N 35°43' W 000°38'0 0.0
2016-Jul-22 12:19N 35°43' W 000°38'0 0.0
2016-Jul-22 11:33N 35°43' W 000°38'0 0.0
2016-Jul-22 10:33N 35°43' W 000°38'0 0.0
2016-Jul-22 09:32N 35°43' W 000°38'0 0.0
2016-Jul-22 08:12N 35°43' W 000°38'0 0.0
2016-Jul-22 04:33N 35°43' W 000°38'0 0.0
2016-Jul-22 03:27N 35°43' W 000°38'0 0.0
2016-Jul-22 02:19N 35°43' W 000°38'0 0.0
2016-Jul-22 01:28N 35°43' W 000°38'0 0.0
2016-Jul-22 00:06N 35°43' W 000°38'0 0.0
2016-Jul-21 23:32N 35°43' W 000°38'0 0.0
2016-Jul-21 22:33N 35°43' W 000°38'0 0.0
2016-Jul-21 21:33N 35°43' W 000°38'0 0.0
2016-Jul-21 20:32N 35°43' W 000°38'0 0.0
2016-Jul-21 19:30N 35°43' W 000°38'0 0.0
2016-Jul-21 18:32N 35°43' W 000°38'0 0.0
2016-Jul-21 17:31N 35°43' W 000°38'0 0.0
2016-Jul-21 16:33N 35°43' W 000°38'0 0.0
2016-Jul-21 15:28N 35°43' W 000°38'0 0.0
2016-Jul-21 14:32N 35°43' W 000°38'0 0.0
2016-Jul-21 13:32N 35°43' W 000°38'0 0.0
2016-Jul-21 12:31N 35°43' W 000°38'0 0.0
2016-Jul-21 11:33N 35°43' W 000°38'0 0.0
2016-Jul-21 10:32N 35°43' W 000°38'0 0.0
2016-Jul-21 09:33N 35°43' W 000°38'0 0.0
2016-Jul-21 08:32N 35°43' W 000°38'0 0.0
2016-Jul-21 07:33N 35°43' W 000°38'0 0.0
2016-Jul-21 06:21N 35°43' W 000°38'0 0.0
2016-Jul-21 05:32N 35°43' W 000°38'0 0.0
2016-Jul-21 00:08N 35°43' W 000°38'0 0.0
2016-Jul-20 23:33N 35°43' W 000°38'0 0.0
2016-Jul-20 22:33N 35°43' W 000°38'0 0.0
2016-Jul-20 21:22N 35°43' W 000°38'0 0.0
2016-Jul-20 20:33N 35°43' W 000°38'0 0.0
2016-Jul-20 17:28N 35°43' W 000°38'0 0.0
2016-Jul-20 15:29N 35°43' W 000°38'0 0.0
2016-Jul-20 14:31N 35°43' W 000°38'0 0.0
2016-Jul-20 12:32N 35°43' W 000°38'0 0.0
2016-Jul-20 11:24N 35°43' W 000°38'0 0.0
2016-Jul-20 10:33N 35°43' W 000°38'0 0.0
2016-Jul-20 09:32N 35°43' W 000°38'0 0.0
2016-Jul-20 08:32N 35°43' W 000°38'0 0.0
2016-Jul-20 07:26N 35°43' W 000°38'0 0.0
2016-Jul-20 06:34N 35°43' W 000°38'0 0.0
2016-Jul-20 05:30N 35°43' W 000°38'0 0.0
2016-Jul-20 02:23N 35°43' W 000°38'0 0.0
2016-Jul-20 01:30N 35°43' W 000°38'0 0.0
2016-Jul-20 00:33N 35°43' W 000°38'0 0.0
2016-Jul-19 23:33N 35°43' W 000°38'0 0.0
2016-Jul-19 22:33N 35°43' W 000°38'0 0.0
2016-Jul-19 21:25N 35°43' W 000°38'0 0.0
2016-Jul-19 20:34N 35°43' W 000°38'0 0.0
2016-Jul-19 19:33N 35°43' W 000°38'0 0.0
2016-Jul-19 18:33N 35°43' W 000°38'0 0.0
2016-Jul-19 15:26N 35°43' W 000°38'0 0.0
2016-Jul-19 14:12N 35°43' W 000°38'0 0.0
2016-Jul-19 13:26N 35°43' W 000°38'0 0.0
2016-Jul-19 07:19N 35°43' W 000°38'0 0.0
2016-Jul-19 04:32N 35°43' W 000°38'0 0.0
2016-Jul-19 03:25N 35°43' W 000°38'0 0.0
2016-Jul-19 00:29N 35°43' W 000°38'0 0.0
2016-Jul-18 23:14N 35°43' W 000°38'0 0.0
2016-Jul-18 22:15N 35°43' W 000°38'0 0.0
2016-Jul-18 21:21N 35°43' W 000°38'0 0.0
2016-Jul-18 20:30N 35°43' W 000°38'0 0.0
2016-Jul-18 19:33N 35°43' W 000°38'0 0.0
2016-Jul-18 18:31N 35°43' W 000°38'0 0.0
2016-Jul-18 17:18N 35°43' W 000°38'0 0.0
2016-Jul-18 16:33N 35°43' W 000°38'0 0.0
2016-Jul-18 15:33N 35°43' W 000°38'0 0.0
2016-Jul-18 14:33N 35°43' W 000°38'0 0.0
2016-Jul-18 07:22N 35°43' W 000°38'0 0.0
2016-Jul-18 03:25N 35°43' W 000°38'1 0.1
2016-Jul-17 19:21N 35°44' W 000°38'0 0.0
2016-Jul-17 18:33N 35°44' W 000°38'  

Dump ship's entire track history